Terminal Aerodrome Forecast
Issued by NWS

Home | Current Version | Previous Version | Text Only | Print | Product List | Glossary On
Versions: 1 2 3 4 5 6 7 8 9 10 11 12 13 14 15 16 17 18 19 20 21 22 23 24 25 26 27 28
487
FTUS46 KOTX 272331
TAFCOE
TAF
KCOE 272331Z 2800/2824 25006KT P6SM FEW050 SCT200
     FM280500 17006KT P6SM SCT200
     FM281500 20009KT P6SM FEW200
     FM282000 24011KT P6SM FEW070 SCT150=

USA.gov is the U.S. government's official web portal to all federal, state and local government web resources and services.